Time;durP1;ratioP1;P1;durP2;ratioP2;P2;SDS_P1;SDS_P2;PMS_P1;PMS_P2;Temp;Humidity;BMP_temperature;BMP_pressure;BME280_temperature;BME280_humidity;BME280_pressure;Samples;Min_cycle;Max_cycle;Signal;HPM_P1;HPM_P2
2021/07/02 00:01:37;;;;;;;32.75;14.02;;;;;;;;;;5093245;28;20051;-66
2021/07/02 00:04:03;;;;;;;31.80;13.85;;;;;;;;;;5086231;28;20132;-66
2021/07/02 00:06:29;;;;;;;34.55;13.57;;;;;;;;;;5083015;28;20040;-66
2021/07/02 00:08:55;;;;;;;39.90;13.82;;;;;;;;;;5088261;28;20048;-66
2021/07/02 00:11:21;;;;;;;30.38;14.27;;;;;;;;;;5100511;28;20101;-66
2021/07/02 00:13:48;;;;;;;28.33;13.07;;;;;;;;;;5084543;28;20044;-66
2021/07/02 00:16:14;;;;;;;30.20;13.60;;;;;;;;;;5071274;28;20090;-66
2021/07/02 00:18:40;;;;;;;26.67;12.95;;;;;;;;;;5089030;28;20058;-66
2021/07/02 00:21:06;;;;;;;31.77;13.63;;;;;;;;;;5072815;28;20054;-66
2021/07/02 00:23:33;;;;;;;25.10;12.30;;;;;;;;;;5095593;28;20381;-66
2021/07/02 00:25:59;;;;;;;27.17;12.57;;;;;;;;;;5080085;28;20043;-66
2021/07/02 00:28:25;;;;;;;26.75;13.80;;;;;;;;;;5062336;28;20049;-66
2021/07/02 00:30:52;;;;;;;24.70;12.48;;;;;;;;;;5062993;28;20086;-66
2021/07/02 00:33:18;;;;;;;26.13;12.35;;;;;;;;;;5086764;28;20092;-66
2021/07/02 00:35:44;;;;;;;26.60;12.18;;;;;;;;;;5095635;28;20037;-66
2021/07/02 00:38:10;;;;;;;26.02;12.23;;;;;;;;;;5092500;28;20043;-66
2021/07/02 00:40:37;;;;;;;28.98;11.75;;;;;;;;;;5079807;28;20373;-66
2021/07/02 00:43:03;;;;;;;23.60;11.43;;;;;;;;;;5087377;28;20028;-66
2021/07/02 00:45:29;;;;;;;22.15;11.85;;;;;;;;;;5083635;28;21332;-66
2021/07/02 00:47:56;;;;;;;21.83;11.45;;;;;;;;;;5091774;28;20052;-66
2021/07/02 00:50:22;;;;;;;25.58;11.63;;;;;;;;;;5092394;28;20032;-66
2021/07/02 00:52:48;;;;;;;24.95;11.15;;;;;;;;;;5071892;28;20072;-66
2021/07/02 00:55:15;;;;;;;24.58;11.15;;;;;;;;;;5094458;28;20126;-66
2021/07/02 00:57:41;;;;;;;22.23;11.15;;;;;;;;;;5082461;28;20432;-66
2021/07/02 01:00:11;;;;;;;21.67;11.77;;;;;;;;;;5095887;28;20043;-66
2021/07/02 01:02:37;;;;;;;18.05;10.93;;;;;;;;;;5090259;28;20329;-66
2021/07/02 01:05:04;;;;;;;22.55;11.63;;;;;;;;;;5090542;28;20509;-66
2021/07/02 01:07:30;;;;;;;23.08;11.10;;;;;;;;;;5080279;28;20061;-66
2021/07/02 01:09:56;;;;;;;18.08;11.55;;;;;;;;;;5097674;28;20040;-66
2021/07/02 01:12:22;;;;;;;20.90;10.85;;;;;;;;;;5091910;28;20181;-66
2021/07/02 01:14:49;;;;;;;23.48;11.25;;;;;;;;;;5083691;28;20040;-66
2021/07/02 01:17:15;;;;;;;22.98;11.18;;;;;;;;;;5080064;28;20127;-66
2021/07/02 01:19:45;;;;;;;20.27;10.40;;;;;;;;;;5090564;28;20115;-66
2021/07/02 01:22:14;;;;;;;22.45;11.65;;;;;;;;;;5076854;28;20039;-66
2021/07/02 01:24:40;;;;;;;22.10;10.85;;;;;;;;;;5093957;28;20032;-66
2021/07/02 01:27:06;;;;;;;21.75;10.45;;;;;;;;;;5079763;28;20946;-66
2021/07/02 01:29:32;;;;;;;18.50;10.70;;;;;;;;;;5072537;28;20070;-66
2021/07/02 01:31:58;;;;;;;22.85;11.35;;;;;;;;;;5097161;28;20398;-66
2021/07/02 01:34:24;;;;;;;24.95;11.02;;;;;;;;;;5085940;28;20097;-66
2021/07/02 01:36:50;;;;;;;25.23;10.57;;;;;;;;;;5097243;28;20748;-66
2021/07/02 01:39:16;;;;;;;24.65;10.70;;;;;;;;;;5076490;28;20039;-66
2021/07/02 01:41:43;;;;;;;19.27;10.30;;;;;;;;;;5087044;28;20046;-66
2021/07/02 01:44:09;;;;;;;19.58;10.23;;;;;;;;;;5083871;28;20066;-66
2021/07/02 01:46:35;;;;;;;21.45;11.88;;;;;;;;;;5093244;28;20044;-66
2021/07/02 01:49:01;;;;;;;22.20;10.95;;;;;;;;;;5083971;28;20036;-66
2021/07/02 01:51:28;;;;;;;24.20;11.43;;;;;;;;;;5089679;28;20063;-67
2021/07/02 01:53:54;;;;;;;24.52;11.32;;;;;;;;;;5089272;28;20059;-66
2021/07/02 01:56:21;;;;;;;23.10;11.13;;;;;;;;;;5093619;28;20043;-66
2021/07/02 01:58:47;;;;;;;24.60;11.70;;;;;;;;;;5083345;28;20130;-66
2021/07/02 02:01:13;;;;;;;25.88;10.85;;;;;;;;;;5087763;28;20471;-66
2021/07/02 02:03:39;;;;;;;24.50;11.57;;;;;;;;;;5082704;28;20043;-66
2021/07/02 02:06:05;;;;;;;22.40;11.38;;;;;;;;;;5096742;28;20054;-66
2021/07/02 02:08:31;;;;;;;23.73;12.18;;;;;;;;;;5083260;28;20043;-66
2021/07/02 02:10:57;;;;;;;28.35;12.60;;;;;;;;;;5088097;28;20039;-66
2021/07/02 02:13:24;;;;;;;30.25;12.82;;;;;;;;;;5089265;28;20043;-66
2021/07/02 02:15:50;;;;;;;30.95;13.52;;;;;;;;;;5084458;28;20039;-66
2021/07/02 02:18:16;;;;;;;24.98;13.75;;;;;;;;;;5091950;28;20040;-66
2021/07/02 02:20:42;;;;;;;22.58;13.68;;;;;;;;;;5080401;28;20147;-66
2021/07/02 02:23:08;;;;;;;27.48;14.05;;;;;;;;;;5096048;28;20531;-66
2021/07/02 02:25:34;;;;;;;24.48;13.98;;;;;;;;;;5083076;28;20036;-66
2021/07/02 02:28:00;;;;;;;29.38;15.15;;;;;;;;;;5098280;28;20055;-66
2021/07/02 02:30:28;;;;;;;22.38;13.93;;;;;;;;;;5076425;28;20047;-66
2021/07/02 02:32:54;;;;;;;25.45;15.35;;;;;;;;;;5081563;28;20032;-66
2021/07/02 02:35:21;;;;;;;25.73;15.48;;;;;;;;;;5089149;28;20039;-66
2021/07/02 02:37:47;;;;;;;25.23;14.48;;;;;;;;;;5091813;28;20424;-66
2021/07/02 02:40:14;;;;;;;25.30;15.10;;;;;;;;;;5076302;28;20494;-66
2021/07/02 02:42:40;;;;;;;19.67;14.65;;;;;;;;;;5084931;28;20028;-66
2021/07/02 02:45:07;;;;;;;29.38;15.45;;;;;;;;;;5080055;28;20072;-66
2021/07/02 02:47:33;;;;;;;26.80;15.48;;;;;;;;;;5083325;28;20044;-66
2021/07/02 02:49:59;;;;;;;26.92;15.52;;;;;;;;;;5087238;28;20423;-66
2021/07/02 02:52:25;;;;;;;30.08;16.10;;;;;;;;;;5086102;28;20036;-66
2021/07/02 02:54:52;;;;;;;28.77;16.58;;;;;;;;;;5095179;28;20036;-66
2021/07/02 02:57:18;;;;;;;29.17;15.77;;;;;;;;;;5081362;28;20050;-66
2021/07/02 02:59:44;;;;;;;26.80;15.60;;;;;;;;;;5093242;28;20146;-66
2021/07/02 03:02:11;;;;;;;29.75;16.00;;;;;;;;;;5084644;28;20502;-66
2021/07/02 03:04:37;;;;;;;28.50;14.90;;;;;;;;;;5080431;28;20421;-66
2021/07/02 03:07:04;;;;;;;28.15;16.20;;;;;;;;;;5085179;28;20048;-66
2021/07/02 03:09:30;;;;;;;28.50;15.43;;;;;;;;;;5086977;28;20045;-66
2021/07/02 03:11:56;;;;;;;30.20;15.88;;;;;;;;;;5080542;28;20067;-66
2021/07/02 03:14:23;;;;;;;23.90;14.52;;;;;;;;;;5090457;28;20039;-66
2021/07/02 03:16:49;;;;;;;23.40;14.85;;;;;;;;;;5077655;28;20056;-66
2021/07/02 03:19:16;;;;;;;24.15;14.52;;;;;;;;;;5095901;28;20491;-66
2021/07/02 03:21:42;;;;;;;24.05;14.80;;;;;;;;;;5076648;28;20127;-66
2021/07/02 03:24:09;;;;;;;22.15;14.43;;;;;;;;;;5085795;28;20044;-66
2021/07/02 03:26:35;;;;;;;24.90;14.23;;;;;;;;;;5087266;28;20047;-66
2021/07/02 03:29:02;;;;;;;22.83;13.88;;;;;;;;;;5093589;28;20471;-66
2021/07/02 03:31:28;;;;;;;22.73;14.90;;;;;;;;;;5096363;28;20363;-66
2021/07/02 03:33:54;;;;;;;27.15;13.80;;;;;;;;;;5077261;28;20040;-66
2021/07/02 03:36:20;;;;;;;26.02;14.48;;;;;;;;;;5088643;28;20119;-66
2021/07/02 03:38:47;;;;;;;23.80;13.93;;;;;;;;;;5082346;28;20138;-65
2021/07/02 03:41:13;;;;;;;24.10;13.98;;;;;;;;;;5085657;28;20036;-65
2021/07/02 03:43:39;;;;;;;22.33;13.70;;;;;;;;;;5081371;28;20096;-65
2021/07/02 03:46:06;;;;;;;27.77;14.57;;;;;;;;;;5084924;28;20067;-65
2021/07/02 03:48:32;;;;;;;25.50;13.85;;;;;;;;;;5082025;28;20384;-65
2021/07/02 03:50:58;;;;;;;25.10;14.63;;;;;;;;;;5092389;28;20062;-65
2021/07/02 03:53:24;;;;;;;21.67;14.02;;;;;;;;;;5087404;28;20488;-65
2021/07/02 03:55:51;;;;;;;24.73;14.73;;;;;;;;;;5087954;28;20078;-65
2021/07/02 03:58:17;;;;;;;28.27;14.68;;;;;;;;;;5079387;28;20044;-65
2021/07/02 04:00:44;;;;;;;25.83;14.93;;;;;;;;;;5082525;28;20496;-65
2021/07/02 04:03:10;;;;;;;24.92;14.63;;;;;;;;;;5076286;28;20058;-65
2021/07/02 04:05:36;;;;;;;23.50;14.48;;;;;;;;;;5086903;28;20139;-65
2021/07/02 04:08:02;;;;;;;25.15;15.07;;;;;;;;;;5082453;28;20044;-65
2021/07/02 04:10:28;;;;;;;22.90;14.85;;;;;;;;;;5090848;28;20123;-65
2021/07/02 04:12:55;;;;;;;22.98;14.80;;;;;;;;;;5085871;28;20546;-65
2021/07/02 04:15:21;;;;;;;19.58;15.07;;;;;;;;;;5087316;28;20047;-65
2021/07/02 04:17:47;;;;;;;21.05;14.77;;;;;;;;;;5093483;28;20047;-65
2021/07/02 04:20:13;;;;;;;22.08;14.00;;;;;;;;;;5086167;28;20193;-65
2021/07/02 04:22:40;;;;;;;24.70;15.77;;;;;;;;;;5110070;28;20533;-65
2021/07/02 04:25:07;;;;;;;24.42;15.00;;;;;;;;;;5084845;28;20051;-65
2021/07/02 04:27:33;;;;;;;24.48;14.20;;;;;;;;;;5092166;28;20096;-65
2021/07/02 04:30:01;;;;;;;21.48;14.48;;;;;;;;;;5093777;28;20421;-65
2021/07/02 04:32:27;;;;;;;24.40;14.90;;;;;;;;;;5094237;28;20050;-65
2021/07/02 04:34:54;;;;;;;27.23;15.35;;;;;;;;;;5082107;28;20050;-65
2021/07/02 04:37:20;;;;;;;78.82;59.90;;;;;;;;;;5093645;28;20139;-66
2021/07/02 04:39:46;;;;;;;24.42;16.77;;;;;;;;;;5086633;28;20154;-65
2021/07/02 04:42:12;;;;;;;25.33;16.15;;;;;;;;;;5093357;28;20055;-66
2021/07/02 04:44:39;;;;;;;27.73;16.88;;;;;;;;;;5085717;28;20036;-66
2021/07/02 04:47:06;;;;;;;22.33;16.30;;;;;;;;;;5086152;28;20055;-66
2021/07/02 04:49:32;;;;;;;27.75;16.42;;;;;;;;;;5090264;28;20039;-66
2021/07/02 04:51:58;;;;;;;26.98;17.80;;;;;;;;;;5086901;28;20088;-66
2021/07/02 04:54:25;;;;;;;26.40;16.80;;;;;;;;;;5094637;28;20120;-66
2021/07/02 04:56:52;;;;;;;30.85;17.05;;;;;;;;;;5076769;28;20032;-66
2021/07/02 04:59:20;;;;;;;30.20;18.60;;;;;;;;;;5088713;28;20396;-66
2021/07/02 05:01:49;;;;;;;35.25;19.90;;;;;;;;;;5084961;28;20549;-66
2021/07/02 05:04:15;;;;;;;29.85;19.17;;;;;;;;;;5097793;28;20446;-66
2021/07/02 05:06:41;;;;;;;30.92;19.10;;;;;;;;;;5080501;28;20082;-66
2021/07/02 05:09:07;;;;;;;37.55;19.15;;;;;;;;;;5092309;28;20046;-66
2021/07/02 05:11:34;;;;;;;35.53;19.58;;;;;;;;;;5090454;28;20464;-66
2021/07/02 05:14:02;;;;;;;32.00;20.27;;;;;;;;;;5101599;28;20036;-66
2021/07/02 05:16:29;;;;;;;33.65;19.17;;;;;;;;;;5077463;28;20040;-66
2021/07/02 05:18:55;;;;;;;31.67;19.77;;;;;;;;;;5091300;28;20502;-66
2021/07/02 05:21:21;;;;;;;30.58;19.88;;;;;;;;;;5090240;28;20066;-66
2021/07/02 05:23:47;;;;;;;33.30;20.17;;;;;;;;;;5093549;28;20123;-66
2021/07/02 05:26:13;;;;;;;31.85;19.33;;;;;;;;;;5089161;28;20447;-66
2021/07/02 05:28:40;;;;;;;37.65;20.95;;;;;;;;;;5086546;28;20072;-66
2021/07/02 05:31:06;;;;;;;36.95;21.65;;;;;;;;;;5089584;28;20452;-66
2021/07/02 05:33:33;;;;;;;34.60;22.02;;;;;;;;;;5085602;28;20105;-66
2021/07/02 05:35:59;;;;;;;39.92;22.80;;;;;;;;;;5097725;28;20048;-66
2021/07/02 05:38:25;;;;;;;37.70;21.02;;;;;;;;;;5085169;28;20051;-66
2021/07/02 05:40:54;;;;;;;44.90;21.40;;;;;;;;;;5089068;28;20510;-65
2021/07/02 05:43:24;;;;;;;35.97;21.77;;;;;;;;;;5078808;28;20044;-65
2021/07/02 05:45:50;;;;;;;39.05;23.13;;;;;;;;;;5082254;28;20107;-65
2021/07/02 05:48:18;;;;;;;37.58;23.35;;;;;;;;;;5076509;28;20102;-65
2021/07/02 05:50:44;;;;;;;34.03;22.48;;;;;;;;;;5088065;28;20066;-65
2021/07/02 05:53:10;;;;;;;42.00;23.25;;;;;;;;;;5060320;28;20048;-65
2021/07/02 05:55:37;;;;;;;37.58;22.15;;;;;;;;;;5087968;28;20046;-65
2021/07/02 05:58:03;;;;;;;37.25;21.40;;;;;;;;;;5087336;28;20045;-65
2021/07/02 06:00:30;;;;;;;37.80;22.65;;;;;;;;;;5088961;28;20197;-65
2021/07/02 06:02:56;;;;;;;34.75;21.67;;;;;;;;;;5082075;28;20028;-65
2021/07/02 06:05:22;;;;;;;36.63;21.75;;;;;;;;;;5086266;28;20040;-65
2021/07/02 06:07:53;;;;;;;31.63;22.25;;;;;;;;;;5086035;28;20090;-65
2021/07/02 06:10:20;;;;;;;32.83;21.13;;;;;;;;;;5093796;28;20539;-65
2021/07/02 06:12:47;;;;;;;34.42;21.38;;;;;;;;;;5090331;28;20481;-65
2021/07/02 06:15:15;;;;;;;36.67;22.73;;;;;;;;;;5094053;28;20043;-66
2021/07/02 06:17:42;;;;;;;29.85;19.67;;;;;;;;;;5100008;28;20079;-66
2021/07/02 06:20:09;;;;;;;30.00;18.98;;;;;;;;;;5081119;28;20043;-65
2021/07/02 06:22:35;;;;;;;30.48;19.55;;;;;;;;;;5087236;28;20043;-65
2021/07/02 06:25:01;;;;;;;29.20;19.38;;;;;;;;;;5088381;28;20916;-65
2021/07/02 06:27:28;;;;;;;29.27;20.20;;;;;;;;;;5087010;28;20066;-65
2021/07/02 06:29:54;;;;;;;25.25;18.88;;;;;;;;;;5079530;28;20119;-65
2021/07/02 06:32:20;;;;;;;30.52;18.67;;;;;;;;;;5084932;28;20046;-65
2021/07/02 06:34:46;;;;;;;28.50;19.08;;;;;;;;;;5074903;28;20123;-65
2021/07/02 06:37:13;;;;;;;29.88;19.85;;;;;;;;;;5094458;28;20039;-65
2021/07/02 06:39:39;;;;;;;30.42;19.02;;;;;;;;;;5089333;28;20463;-65
2021/07/02 06:42:05;;;;;;;27.27;18.42;;;;;;;;;;5097677;28;20095;-65
2021/07/02 06:44:31;;;;;;;28.10;18.85;;;;;;;;;;5080540;28;20127;-66
2021/07/02 06:46:58;;;;;;;26.75;17.50;;;;;;;;;;5093527;28;20426;-66
2021/07/02 06:49:24;;;;;;;27.02;17.75;;;;;;;;;;5088835;28;20052;-66
2021/07/02 06:51:50;;;;;;;23.50;15.85;;;;;;;;;;5088217;28;20045;-66
2021/07/02 06:54:17;;;;;;;22.25;15.90;;;;;;;;;;5085302;28;20047;-64
2021/07/02 06:57:07;;;;;;;25.83;16.42;;;;;;;;;;5079977;28;20482;-63
2021/07/02 06:59:37;;;;;;;23.33;17.75;;;;;;;;;;5087178;28;20039;-63
2021/07/02 07:02:04;;;;;;;28.05;18.00;;;;;;;;;;5085355;28;20058;-63
2021/07/02 07:04:34;;;;;;;28.02;18.75;;;;;;;;;;5087714;28;20602;-63
2021/07/02 07:07:01;;;;;;;24.33;19.17;;;;;;;;;;5080214;28;20040;-63
2021/07/02 07:09:28;;;;;;;23.90;18.40;;;;;;;;;;5087328;28;20064;-63
2021/07/02 07:11:55;;;;;;;25.63;19.30;;;;;;;;;;5087547;28;20039;-64
2021/07/02 07:14:22;;;;;;;26.75;19.88;;;;;;;;;;5099276;28;20554;-64
2021/07/02 07:16:48;;;;;;;28.23;20.50;;;;;;;;;;5087555;28;20040;-64
2021/07/02 07:19:14;;;;;;;29.40;20.08;;;;;;;;;;5086110;28;20511;-64
2021/07/02 07:21:41;;;;;;;29.35;20.85;;;;;;;;;;5079830;28;20069;-64
2021/07/02 07:24:07;;;;;;;30.63;20.50;;;;;;;;;;5085340;28;20196;-64
2021/07/02 07:26:35;;;;;;;33.88;20.52;;;;;;;;;;5077816;28;20044;-64
2021/07/02 07:29:07;;;;;;;29.33;19.65;;;;;;;;;;5086707;28;20040;-64
2021/07/02 07:31:34;;;;;;;29.02;19.67;;;;;;;;;;5086846;28;20480;-64
2021/07/02 07:34:02;;;;;;;25.85;18.63;;;;;;;;;;5085897;28;20097;-64
2021/07/02 07:36:31;;;;;;;24.23;17.13;;;;;;;;;;5081905;28;20096;-64
2021/07/02 07:39:09;;;;;;;22.40;16.02;;;;;;;;;;5094807;28;20048;-64
2021/07/02 07:41:35;;;;;;;20.42;13.95;;;;;;;;;;5084497;28;20036;-65
2021/07/02 07:44:02;;;;;;;21.48;14.88;;;;;;;;;;5083472;28;20071;-64
2021/07/02 07:46:28;;;;;;;27.45;17.38;;;;;;;;;;5082656;28;20083;-64
2021/07/02 07:48:55;;;;;;;24.55;15.77;;;;;;;;;;5063842;28;20052;-65
2021/07/02 07:53:54;;;;;;;22.50;14.50;;;;;;;;;;5074229;28;20421;-65
2021/07/02 07:56:20;;;;;;;24.48;15.07;;;;;;;;;;5068367;28;20428;-65
2021/07/02 07:58:47;;;;;;;20.42;14.30;;;;;;;;;;5083925;28;20070;-65
2021/07/02 08:01:13;;;;;;;21.52;15.82;;;;;;;;;;5091443;28;20043;-65
2021/07/02 08:03:40;;;;;;;21.65;16.67;;;;;;;;;;5085324;28;20044;-65
2021/07/02 08:06:06;;;;;;;25.27;16.10;;;;;;;;;;5086627;28;20107;-65
2021/07/02 08:08:32;;;;;;;17.60;14.73;;;;;;;;;;5077222;28;20047;-65
2021/07/02 08:11:00;;;;;;;22.45;15.90;;;;;;;;;;5087288;28;20127;-65
2021/07/02 08:13:29;;;;;;;26.92;17.13;;;;;;;;;;5090749;28;20136;-65
2021/07/02 08:15:56;;;;;;;23.35;18.45;;;;;;;;;;5080486;28;20044;-66
2021/07/02 08:18:22;;;;;;;25.38;18.55;;;;;;;;;;5078963;28;20040;-65
2021/07/02 08:20:49;;;;;;;23.50;18.77;;;;;;;;;;5093479;28;20035;-65
2021/07/02 08:23:15;;;;;;;26.95;18.70;;;;;;;;;;5083361;28;20048;-66
2021/07/02 08:25:41;;;;;;;23.65;17.45;;;;;;;;;;5086583;28;20036;-66
2021/07/02 08:30:52;;;;;;;26.38;18.63;;;;;;;;;;5077575;28;20091;-66
2021/07/02 08:33:20;;;;;;;25.48;18.80;;;;;;;;;;5087773;28;20035;-66
2021/07/02 08:35:49;;;;;;;28.35;19.00;;;;;;;;;;5095639;28;20040;-66
2021/07/02 08:38:15;;;;;;;25.67;17.13;;;;;;;;;;5094757;28;20118;-66
2021/07/02 08:40:42;;;;;;;23.17;17.60;;;;;;;;;;5072575;28;20048;-66
2021/07/02 08:43:08;;;;;;;25.45;18.40;;;;;;;;;;5091077;28;20492;-66
2021/07/02 08:45:35;;;;;;;28.10;19.13;;;;;;;;;;5090629;28;20134;-66
2021/07/02 08:48:03;;;;;;;25.20;19.13;;;;;;;;;;5095024;28;20109;-66
2021/07/02 08:50:30;;;;;;;26.52;19.15;;;;;;;;;;5082594;28;20036;-66
2021/07/02 08:52:56;;;;;;;26.48;18.90;;;;;;;;;;5096751;28;20437;-66
2021/07/02 08:55:23;;;;;;;29.52;19.45;;;;;;;;;;5091113;28;20035;-66
2021/07/02 08:57:49;;;;;;;29.08;20.45;;;;;;;;;;5089554;28;20044;-66
2021/07/02 09:00:15;;;;;;;22.83;19.15;;;;;;;;;;5082739;28;20033;-66
2021/07/02 09:02:42;;;;;;;25.25;20.60;;;;;;;;;;5093562;28;20043;-66
2021/07/02 09:05:28;;;;;;;25.02;18.95;;;;;;;;;;5076985;28;20043;-66
2021/07/02 09:07:54;;;;;;;23.42;18.10;;;;;;;;;;5078179;28;20133;-66
2021/07/02 09:10:30;;;;;;;22.73;16.45;;;;;;;;;;5080384;28;20033;-66
2021/07/02 09:12:56;;;;;;;19.23;17.23;;;;;;;;;;5099312;28;20485;-66
2021/07/02 09:15:22;;;;;;;21.58;16.95;;;;;;;;;;5085171;28;20044;-66
2021/07/02 09:17:51;;;;;;;19.20;16.52;;;;;;;;;;5092189;28;20040;-66
2021/07/02 09:20:19;;;;;;;22.73;18.08;;;;;;;;;;5083861;28;20036;-66
2021/07/02 09:23:00;;;;;;;18.80;15.70;;;;;;;;;;5090162;28;20074;-66
2021/07/02 09:25:29;;;;;;;18.27;16.15;;;;;;;;;;5091489;28;20048;-67
2021/07/02 09:27:56;;;;;;;23.60;15.35;;;;;;;;;;5087988;28;20051;-67
2021/07/02 09:30:27;;;;;;;38.53;33.78;;;;;;;;;;5091284;28;20064;-66
2021/07/02 09:32:54;;;;;;;31.58;25.02;;;;;;;;;;5089881;28;20044;-66
2021/07/02 09:35:22;;;;;;;19.83;15.85;;;;;;;;;;5097470;28;20054;-66
2021/07/02 09:37:51;;;;;;;21.27;12.73;;;;;;;;;;5079428;28;20044;-66
2021/07/02 09:40:19;;;;;;;19.10;12.73;;;;;;;;;;5086864;28;20496;-66
2021/07/02 09:42:46;;;;;;;15.70;12.40;;;;;;;;;;5085617;28;20047;-66
2021/07/02 09:45:14;;;;;;;19.13;12.00;;;;;;;;;;5089431;28;20257;-66
2021/07/02 09:47:42;;;;;;;13.88;10.60;;;;;;;;;;5087498;28;20044;-66
2021/07/02 09:50:14;;;;;;;13.00;9.45;;;;;;;;;;5087033;28;20106;-66
2021/07/02 09:52:55;;;;;;;11.23;7.93;;;;;;;;;;5084635;28;20042;-66
2021/07/02 09:55:25;;;;;;;13.48;7.53;;;;;;;;;;5085858;28;20401;-66
2021/07/02 09:58:02;;;;;;;9.65;7.70;;;;;;;;;;5065381;28;20480;-66
2021/07/02 10:00:28;;;;;;;12.68;7.72;;;;;;;;;;5092028;28;20035;-66
2021/07/02 10:02:58;;;;;;;9.40;7.45;;;;;;;;;;5086150;28;20068;-66
2021/07/02 10:05:25;;;;;;;8.48;7.55;;;;;;;;;;5083047;28;20063;-66
2021/07/02 10:08:04;;;;;;;13.38;7.10;;;;;;;;;;5082507;28;20035;-66
2021/07/02 10:10:31;;;;;;;9.23;6.75;;;;;;;;;;5091620;28;20044;-66
2021/07/02 10:12:58;;;;;;;9.52;6.72;;;;;;;;;;5082984;28;20061;-66
2021/07/02 10:15:25;;;;;;;7.80;6.57;;;;;;;;;;5090448;28;20039;-66
2021/07/02 10:17:52;;;;;;;8.82;6.50;;;;;;;;;;5083721;28;20074;-66
2021/07/02 10:20:18;;;;;;;7.07;6.20;;;;;;;;;;5090630;28;20407;-66
2021/07/02 10:22:46;;;;;;;7.05;5.75;;;;;;;;;;5076222;28;20450;-66
2021/07/02 10:25:13;;;;;;;8.25;5.78;;;;;;;;;;5086693;28;20025;-66
2021/07/02 10:27:39;;;;;;;9.52;6.10;;;;;;;;;;5089461;28;20044;-66
2021/07/02 10:30:07;;;;;;;9.50;5.55;;;;;;;;;;5089282;28;20044;-66
2021/07/02 10:32:33;;;;;;;7.57;5.55;;;;;;;;;;5081644;28;20369;-66
2021/07/02 10:35:00;;;;;;;5.88;4.90;;;;;;;;;;5079391;28;20032;-66
2021/07/02 10:37:26;;;;;;;8.20;5.13;;;;;;;;;;5089426;28;20492;-66
2021/07/02 10:39:53;;;;;;;8.70;4.93;;;;;;;;;;5088477;28;20043;-66
2021/07/02 10:42:19;;;;;;;7.22;5.60;;;;;;;;;;5084906;28;20060;-66
2021/07/02 10:44:55;;;;;;;6.07;5.00;;;;;;;;;;5078795;28;20024;-66
2021/07/02 10:47:22;;;;;;;7.80;6.38;;;;;;;;;;5087408;28;20052;-66
2021/07/02 10:49:50;;;;;;;8.60;6.20;;;;;;;;;;5081871;28;20046;-67
2021/07/02 10:52:20;;;;;;;7.20;5.85;;;;;;;;;;5082203;28;20044;-67
2021/07/02 10:54:47;;;;;;;17.05;15.25;;;;;;;;;;5075873;28;21619;-66
2021/07/02 10:57:14;;;;;;;8.68;5.65;;;;;;;;;;5088291;28;20122;-68
2021/07/02 10:59:46;;;;;;;8.32;6.22;;;;;;;;;;5078115;28;20070;-66
2021/07/02 11:02:12;;;;;;;8.43;5.88;;;;;;;;;;5080413;28;20480;-66
2021/07/02 11:04:48;;;;;;;7.55;6.22;;;;;;;;;;5085294;28;20282;-66
2021/07/02 11:07:14;;;;;;;13.23;7.80;;;;;;;;;;5104106;28;20043;-66
2021/07/02 11:09:53;;;;;;;8.15;6.70;;;;;;;;;;5078117;28;20046;-66
2021/07/02 11:12:23;;;;;;;7.38;6.47;;;;;;;;;;5091161;28;20055;-66
2021/07/02 11:14:52;;;;;;;7.03;6.13;;;;;;;;;;5096402;28;20036;-66
2021/07/02 11:17:22;;;;;;;6.72;5.53;;;;;;;;;;5088834;28;20118;-66
2021/07/02 11:20:17;;;;;;;9.52;5.85;;;;;;;;;;5075966;28;20491;-66
2021/07/02 11:22:47;;;;;;;8.02;6.60;;;;;;;;;;5073196;28;20407;-67
2021/07/02 11:25:30;;;;;;;8.27;6.50;;;;;;;;;;5080228;28;20036;-66
2021/07/02 11:27:59;;;;;;;9.70;6.10;;;;;;;;;;5102908;28;20436;-66
2021/07/02 11:33:01;;;;;;;10.20;6.90;;;;;;;;;;5083620;28;20036;-66
2021/07/02 11:35:31;;;;;;;9.27;6.95;;;;;;;;;;5080301;28;20048;-66
2021/07/02 11:37:57;;;;;;;7.70;6.45;;;;;;;;;;5082849;28;20032;-66
2021/07/02 11:40:23;;;;;;;8.00;7.00;;;;;;;;;;5087929;28;20043;-66
2021/07/02 11:42:52;;;;;;;8.20;7.30;;;;;;;;;;5075421;28;20042;-66
2021/07/02 11:45:19;;;;;;;9.80;7.95;;;;;;;;;;5084988;28;20033;-66
2021/07/02 11:47:45;;;;;;;10.43;7.43;;;;;;;;;;5081623;28;20058;-66
2021/07/02 11:50:11;;;;;;;10.23;8.05;;;;;;;;;;5084056;28;20132;-66
2021/07/02 11:52:37;;;;;;;9.23;7.55;;;;;;;;;;5065249;28;20044;-67
2021/07/02 11:55:03;;;;;;;10.63;6.20;;;;;;;;;;5101750;28;20446;-67
2021/07/02 11:57:29;;;;;;;6.85;5.85;;;;;;;;;;5082690;28;20040;-67
2021/07/02 11:59:56;;;;;;;8.82;5.85;;;;;;;;;;5083361;28;20044;-66
2021/07/02 12:02:22;;;;;;;6.05;4.72;;;;;;;;;;5071076;28;20028;-66
2021/07/02 12:05:00;;;;;;;8.40;4.07;;;;;;;;;;5100478;28;20076;-66
2021/07/02 12:07:27;;;;;;;4.30;3.90;;;;;;;;;;5086627;28;20134;-66
2021/07/02 12:09:53;;;;;;;4.45;4.05;;;;;;;;;;5088539;28;20068;-66
2021/07/02 12:12:20;;;;;;;4.13;3.50;;;;;;;;;;5075234;28;20044;-66
2021/07/02 12:14:47;;;;;;;5.97;3.97;;;;;;;;;;5085748;28;20036;-66
2021/07/02 12:17:13;;;;;;;5.28;3.38;;;;;;;;;;5081396;28;20067;-66
2021/07/02 12:19:41;;;;;;;5.18;3.17;;;;;;;;;;5085210;28;20047;-66
2021/07/02 12:22:11;;;;;;;4.18;2.50;;;;;;;;;;5075116;28;20039;-66
2021/07/02 12:24:38;;;;;;;4.85;2.78;;;;;;;;;;5095956;28;20118;-66
2021/07/02 12:27:05;;;;;;;5.63;2.80;;;;;;;;;;5088762;28;20068;-66
2021/07/02 12:29:32;;;;;;;4.32;2.50;;;;;;;;;;5078499;28;20055;-66
2021/07/02 12:32:00;;;;;;;4.25;2.85;;;;;;;;;;5099046;28;20131;-66
2021/07/02 12:34:27;;;;;;;5.32;3.53;;;;;;;;;;5090969;28;20039;-66
2021/07/02 12:36:56;;;;;;;3.85;3.10;;;;;;;;;;5099238;28;20484;-67
2021/07/02 12:39:26;;;;;;;7.80;6.47;;;;;;;;;;5088089;28;20059;-67
2021/07/02 12:41:52;;;;;;;5.97;5.07;;;;;;;;;;5101639;28;20433;-66
2021/07/02 12:44:23;;;;;;;6.88;5.38;;;;;;;;;;5084899;28;20043;-66
2021/07/02 12:46:49;;;;;;;5.35;4.60;;;;;;;;;;5085051;28;20346;-66
2021/07/02 12:49:29;;;;;;;6.85;5.20;;;;;;;;;;5088950;28;20538;-66
2021/07/02 12:54:54;;;;;;;6.18;4.88;;;;;;;;;;5091150;28;20376;-66
2021/07/02 12:57:24;;;;;;;6.65;4.00;;;;;;;;;;5082682;28;20040;-66
2021/07/02 12:59:55;;;;;;;4.68;4.22;;;;;;;;;;5086125;28;20040;-66
2021/07/02 13:02:25;;;;;;;4.75;4.35;;;;;;;;;;5090576;28;20040;-66
2021/07/02 13:04:51;;;;;;;5.72;3.55;;;;;;;;;;5079279;28;20058;-67
2021/07/02 13:07:17;;;;;;;5.85;4.78;;;;;;;;;;5085061;28;20178;-67
2021/07/02 13:09:44;;;;;;;4.60;4.20;;;;;;;;;;5081442;28;20075;-67
2021/07/02 13:12:14;;;;;;;3.92;3.28;;;;;;;;;;5094967;28;20040;-67
2021/07/02 13:14:44;;;;;;;6.32;3.33;;;;;;;;;;5083137;28;20094;-67
2021/07/02 13:17:13;;;;;;;3.90;2.97;;;;;;;;;;5090318;28;20369;-67
2021/07/02 13:19:39;;;;;;;4.32;3.15;;;;;;;;;;5081981;28;20105;-67
2021/07/02 13:22:12;;;;;;;3.47;2.85;;;;;;;;;;5092280;28;20070;-67
2021/07/02 13:24:38;;;;;;;4.30;3.00;;;;;;;;;;5081000;28;20046;-67
2021/07/02 13:27:04;;;;;;;3.63;2.60;;;;;;;;;;5085391;28;20459;-67
2021/07/02 13:29:30;;;;;;;3.72;3.30;;;;;;;;;;5103253;28;20065;-67
2021/07/02 13:31:57;;;;;;;7.68;5.55;;;;;;;;;;5080294;28;20094;-67
2021/07/02 13:34:44;;;;;;;3.50;2.70;;;;;;;;;;5095830;28;20123;-67
2021/07/02 13:37:11;;;;;;;3.78;3.17;;;;;;;;;;5078766;28;20049;-67
2021/07/02 13:39:42;;;;;;;2.83;2.63;;;;;;;;;;5092314;28;20094;-67
2021/07/02 13:42:11;;;;;;;4.97;3.63;;;;;;;;;;5080484;28;20040;-67
2021/07/02 13:45:05;;;;;;;3.45;3.15;;;;;;;;;;5088601;28;20091;-67
2021/07/02 13:47:32;;;;;;;3.30;3.00;;;;;;;;;;5079158;28;20076;-68
2021/07/02 13:49:59;;;;;;;3.70;3.40;;;;;;;;;;5083115;28;20040;-68
2021/07/02 13:52:29;;;;;;;4.65;3.90;;;;;;;;;;5083775;28;20202;-67
2021/07/02 13:54:57;;;;;;;5.18;4.30;;;;;;;;;;5083099;28;20072;-68
2021/07/02 13:57:23;;;;;;;5.70;3.88;;;;;;;;;;5071655;28;20048;-67
2021/07/02 13:59:49;;;;;;;4.20;3.50;;;;;;;;;;5100253;28;20046;-67
2021/07/02 14:02:16;;;;;;;5.32;3.88;;;;;;;;;;5081846;28;20132;-67
2021/07/02 14:04:42;;;;;;;5.15;4.63;;;;;;;;;;5104543;28;20040;-69
2021/07/02 14:07:09;;;;;;;4.53;4.03;;;;;;;;;;5077601;28;20044;-68
2021/07/02 14:09:35;;;;;;;6.65;5.03;;;;;;;;;;5085070;28;20051;-69
2021/07/02 14:12:01;;;;;;;5.13;4.63;;;;;;;;;;5085337;28;20040;-67
2021/07/02 14:14:28;;;;;;;5.50;5.00;;;;;;;;;;5090698;28;20598;-66
2021/07/02 14:16:54;;;;;;;5.35;4.40;;;;;;;;;;5080798;28;20043;-68
2021/07/02 14:19:20;;;;;;;6.03;4.43;;;;;;;;;;5091639;28;20040;-66
2021/07/02 14:21:47;;;;;;;5.55;4.57;;;;;;;;;;5090108;28;20047;-67
2021/07/02 14:24:14;;;;;;;6.63;5.22;;;;;;;;;;5090704;28;20036;-67
2021/07/02 14:26:41;;;;;;;5.53;4.72;;;;;;;;;;5088685;28;20046;-67
2021/07/02 14:29:08;;;;;;;7.13;4.93;;;;;;;;;;5083609;28;20043;-67
2021/07/02 14:31:35;;;;;;;6.82;5.78;;;;;;;;;;5088372;28;20461;-67
2021/07/02 14:34:02;;;;;;;6.72;5.13;;;;;;;;;;5085080;28;20039;-65
2021/07/02 14:36:28;;;;;;;5.18;4.60;;;;;;;;;;5088762;28;20075;-65
2021/07/02 14:38:54;;;;;;;6.72;5.72;;;;;;;;;;5092695;28;20414;-65